Time;durP1;ratioP1;P1;durP2;ratioP2;P2;SDS_P1;SDS_P2;PMS_P1;PMS_P2;Temp;Humidity;BMP_temperature;BMP_pressure;BME280_temperature;BME280_humidity;BME280_pressure;Samples;Min_cycle;Max_cycle;Signal;HPM_P1;HPM_P2
2022/06/23 00:00:10;;;;;;;18.83;6.73;;;22.70;83.70;;;23.24;56.05;94685.06;4980609;28;20470;-56
2022/06/23 00:02:39;;;;;;;8.80;6.00;;;22.70;84.00;;;23.24;55.75;94686.94;4981349;28;20525;-54
2022/06/23 00:05:12;;;;;;;9.97;5.97;;;22.70;83.60;;;23.25;56.45;94688.56;4981588;28;20928;-54
2022/06/23 00:07:44;;;;;;;12.83;6.17;;;22.70;83.80;;;23.25;56.23;94677.81;4981076;28;20465;-53
2022/06/23 00:10:15;;;;;;;12.67;5.77;;;22.70;83.20;;;23.24;55.91;94676.22;4978994;28;20518;-53
2022/06/23 00:12:44;;;;;;;15.63;6.40;;;22.70;83.70;;;23.22;56.29;94684.47;4983394;28;20450;-55
2022/06/23 00:15:28;;;;;;;10.90;6.00;;;22.70;83.40;;;23.20;56.34;94689.22;4980977;28;20501;-55
2022/06/23 00:17:59;;;;;;;13.50;7.10;;;22.70;83.60;;;23.17;55.71;94688.84;4979245;28;20929;-55
2022/06/23 00:20:31;;;;;;;8.17;5.30;;;22.70;83.70;;;23.14;56.24;94686.63;4978214;28;20470;-53
2022/06/23 00:23:05;;;;;;;11.40;6.43;;;22.60;84.30;;;23.11;56.60;94690.56;4979456;28;20451;-53
2022/06/23 00:25:45;;;;;;;12.30;7.27;;;22.60;84.00;;;23.05;56.93;94684.22;4980795;28;20565;-53
2022/06/23 00:28:22;;;;;;;8.83;6.53;;;22.50;84.50;;;23.03;56.69;94677.41;4979218;28;20978;-56
2022/06/23 00:30:53;;;;;;;23.90;6.50;;;22.50;84.80;;;23.02;56.58;94678.44;4975350;28;20475;-54
2022/06/23 00:33:22;;;;;;;8.33;6.13;;;22.50;85.30;;;22.99;56.91;94662.78;4977069;28;20457;-55
2022/06/23 00:35:51;;;;;;;10.07;6.50;;;22.50;85.80;;;22.96;57.66;94656.03;4982124;28;20506;-52
2022/06/23 00:38:24;;;;;;;11.63;6.90;;;22.50;85.90;;;22.94;57.77;94641.19;4979825;28;20538;-55
2022/06/23 00:40:51;;;;;;;11.70;6.77;;;22.40;86.30;;;22.92;57.49;94618.09;4981150;28;20489;-55
2022/06/23 00:43:18;;;;;;;12.70;6.80;;;22.40;87.70;;;22.89;58.23;94631.94;4975749;28;20459;-55
2022/06/23 00:45:49;;;;;;;9.90;6.30;;;22.40;86.90;;;22.85;57.52;94644.19;4979487;28;21007;-54
2022/06/23 00:48:20;;;;;;;9.57;6.37;;;22.30;87.10;;;22.81;57.82;94652.88;4980824;28;20461;-56
2022/06/23 00:50:49;;;;;;;11.90;6.70;;;22.30;87.20;;;22.75;57.59;94659.94;4979214;28;20483;-54
2022/06/23 00:53:23;;;;;;;12.93;6.97;;;22.30;86.90;;;22.69;57.79;94660.81;4977496;28;20459;-55
2022/06/23 00:55:57;;;;;;;8.53;6.00;;;22.20;87.20;;;22.65;57.73;94654.25;4980023;28;21039;-55
2022/06/23 00:58:33;;;;;;;9.73;6.20;;;22.20;87.20;;;22.60;57.75;94656.78;4979335;28;20974;-55
2022/06/23 01:01:05;;;;;;;11.70;7.00;;;22.10;87.30;;;22.56;57.97;94651.88;4977937;28;20838;-53
2022/06/23 01:03:35;;;;;;;10.07;6.67;;;22.10;87.70;;;22.53;58.39;94646.13;4978955;28;20451;-57
2022/06/23 01:06:10;;;;;;;10.00;7.27;;;22.00;88.10;;;22.51;58.10;94651.72;4979238;28;21018;-55
2022/06/23 01:08:47;;;;;;;10.37;6.50;;;22.00;88.30;;;22.51;58.20;94648.19;4973889;28;20457;-56
2022/06/23 01:11:20;;;;;;;13.67;7.10;;;22.00;88.30;;;22.49;58.15;94652.97;4979974;28;20470;-56
2022/06/23 01:13:50;;;;;;;8.70;6.67;;;22.00;88.60;;;22.47;58.78;94642.47;4977367;28;20497;-55
2022/06/23 01:16:20;;;;;;;7.53;6.77;;;22.00;88.90;;;22.46;58.69;94646.16;4983953;28;20524;-54
2022/06/23 01:18:53;;;;;;;12.37;7.40;;;22.00;89.10;;;22.45;58.85;94641.88;4978916;28;20534;-54
2022/06/23 01:21:21;;;;;;;13.03;6.30;;;21.90;89.30;;;22.44;59.19;94626.81;4976146;28;21016;-53
2022/06/23 01:24:10;;;;;;;7.17;6.57;;;21.90;89.70;;;22.43;59.29;94627.03;4978127;28;20451;-54
2022/06/23 01:27:01;;;;;;;11.77;6.70;;;21.90;90.00;;;22.40;59.35;94630.97;4972632;28;20483;-55
2022/06/23 01:29:31;;;;;;;14.93;7.17;;;21.90;90.10;;;22.36;59.06;94630.59;4976830;28;21171;-55
2022/06/23 01:32:09;;;;;;;11.63;6.63;;;21.90;90.30;;;22.35;59.84;94634.34;4977848;28;20462;-54
2022/06/23 01:34:44;;;;;;;9.17;6.90;;;21.90;90.20;;;22.32;59.46;94623.22;4977506;28;20451;-53
2022/06/23 01:37:18;;;;;;;13.67;7.83;;;21.90;90.50;;;22.30;59.30;94614.53;4979787;28;20831;-55
2022/06/23 01:39:49;;;;;;;8.23;7.43;;;21.80;90.40;;;22.28;59.02;94622.00;4979958;28;20563;-54
2022/06/23 01:42:22;;;;;;;11.37;6.70;;;21.80;90.50;;;22.21;59.49;94611.31;4980439;28;20949;-54
2022/06/23 01:44:55;;;;;;;13.30;8.00;;;21.80;90.50;;;22.14;59.41;94610.56;4975640;28;20479;-54
2022/06/23 01:47:28;;;;;;;10.00;7.47;;;21.70;90.60;;;22.06;59.57;94608.97;4978768;28;20916;-55
2022/06/23 01:50:01;;;;;;;10.97;6.90;;;21.60;90.50;;;21.98;59.45;94610.06;4977449;28;20481;-55
2022/06/23 01:52:28;;;;;;;13.23;7.17;;;21.60;90.70;;;21.91;59.32;94597.75;4979053;28;20448;-56
2022/06/23 01:54:59;;;;;;;15.20;6.50;;;21.50;90.70;;;21.80;59.44;94589.38;4978111;28;20496;-55
2022/06/23 01:57:30;;;;;;;10.00;6.90;;;21.40;90.80;;;21.71;60.32;94593.34;4976848;28;20451;-54
2022/06/23 02:00:04;;;;;;;12.00;6.93;;;21.30;91.00;;;21.67;60.53;94594.81;4978841;28;20691;-54
2022/06/23 02:02:43;;;;;;;12.20;7.10;;;21.30;91.50;;;21.63;60.68;94588.25;4979151;28;20829;-54
2022/06/23 02:05:18;;;;;;;17.80;7.27;;;21.20;91.60;;;21.61;60.46;94584.97;4975652;28;20493;-54
2022/06/23 02:07:56;;;;;;;14.30;7.10;;;21.10;91.50;;;21.56;60.86;94584.78;4978955;28;20562;-57
2022/06/23 02:10:28;;;;;;;11.97;8.50;;;21.10;91.80;;;21.53;61.58;94590.56;4976315;28;20855;-52
2022/06/23 02:12:58;;;;;;;17.70;8.13;;;21.10;92.20;;;21.52;61.35;94591.59;4976534;28;20459;-53
2022/06/23 02:15:30;;;;;;;14.40;7.20;;;21.00;92.40;;;21.52;61.61;94596.94;4981021;28;20514;-54
2022/06/23 02:17:59;;;;;;;11.90;7.37;;;21.00;92.70;;;21.50;61.83;94591.81;4980617;28;20512;-56
2022/06/23 02:20:42;;;;;;;20.27;8.87;;;21.00;92.80;;;21.49;61.66;94596.34;4979198;28;20501;-55
2022/06/23 02:23:22;;;;;;;9.20;7.60;;;21.00;92.90;;;21.49;61.56;94593.69;4973839;28;20952;-56
2022/06/23 02:25:54;;;;;;;7.63;6.60;;;21.00;92.80;;;21.47;61.68;94587.69;4978022;28;20471;-56
2022/06/23 02:28:31;;;;;;;16.37;8.10;;;21.00;93.00;;;21.46;61.82;94594.06;4978057;28;20455;-55
2022/06/23 02:31:06;;;;;;;11.50;8.50;;;21.00;93.20;;;21.45;62.10;94584.41;4976981;28;20478;-56
2022/06/23 02:33:36;;;;;;;12.43;7.47;;;21.00;93.30;;;21.45;61.88;94591.63;4978371;28;20966;-56
2022/06/23 02:36:06;;;;;;;12.93;8.10;;;21.00;93.50;;;21.44;62.23;94598.81;4977434;28;20495;-56
2022/06/23 02:38:35;;;;;;;12.57;8.70;;;21.00;93.60;;;21.44;62.42;94601.50;4977570;28;20450;-53
2022/06/23 02:41:07;;;;;;;21.53;7.67;;;21.00;93.90;;;21.44;62.47;94596.16;4978921;28;20721;-56
2022/06/23 02:43:36;;;;;;;12.00;8.07;;;21.00;94.00;;;21.42;62.11;94600.88;4978088;28;20439;-56
2022/06/23 02:46:29;;;;;;;24.03;8.70;;;21.00;94.00;;;21.42;62.79;94606.22;4975645;28;20475;-54
2022/06/23 02:49:19;;;;;;;12.27;7.37;;;21.00;94.10;;;21.42;62.84;94605.41;4971416;28;20455;-55
2022/06/23 02:52:06;;;;;;;14.40;8.03;;;21.00;94.20;;;21.39;62.79;94600.50;4977477;28;20466;-60
2022/06/23 02:54:50;;;;;;;9.40;7.97;;;20.90;94.30;;;21.40;62.62;94612.84;4973644;28;20482;-57
2022/06/23 02:57:36;;;;;;;11.57;6.93;;;20.90;94.30;;;21.38;63.23;94623.75;4971043;28;20446;-55
2022/06/23 03:00:09;;;;;;;11.33;7.40;;;20.90;94.60;;;21.38;62.80;94622.91;4977043;28;20498;-56
2022/06/23 03:02:40;;;;;;;10.70;8.07;;;20.90;94.50;;;21.40;62.84;94636.94;4978677;28;20447;-56
2022/06/23 03:05:15;;;;;;;13.83;8.83;;;20.90;94.50;;;21.39;62.84;94629.94;4977919;28;21034;-54
2022/06/23 03:07:43;;;;;;;11.33;8.03;;;20.90;94.40;;;21.39;62.82;94630.72;4975571;28;20450;-55
2022/06/23 03:10:14;;;;;;;13.70;6.90;;;20.90;94.40;;;21.39;62.63;94629.94;4976270;28;20482;-56
2022/06/23 03:12:45;;;;;;;20.00;8.67;;;20.90;94.30;;;21.39;62.43;94636.09;4977112;28;20534;-54
2022/06/23 03:15:15;;;;;;;12.90;7.53;;;20.90;94.30;;;21.38;62.49;94626.44;4979818;28;20471;-57
2022/06/23 03:17:47;;;;;;;15.70;8.20;;;20.90;94.30;;;21.40;62.54;94626.22;4979927;28;20444;-54
2022/06/23 03:20:28;;;;;;;12.83;9.13;;;20.90;94.50;;;21.42;62.89;94624.16;4978338;28;20597;-53
2022/06/23 03:23:00;;;;;;;14.70;8.77;;;20.90;94.60;;;21.41;62.59;94618.00;4976056;28;20451;-53
2022/06/23 03:25:31;;;;;;;12.47;8.20;;;21.00;94.60;;;21.41;62.71;94609.97;4978551;28;20984;-54
2022/06/23 03:28:01;;;;;;;16.83;8.20;;;21.00;94.60;;;21.40;62.81;94607.50;4976839;28;20455;-55
2022/06/23 03:30:34;;;;;;;18.47;8.70;;;20.90;94.70;;;21.39;62.84;94603.97;4972925;28;20844;-56
2022/06/23 03:33:11;;;;;;;12.73;8.13;;;20.90;94.80;;;21.40;62.93;94602.97;4978703;28;20847;-54
2022/06/23 03:35:42;;;;;;;17.70;8.40;;;20.90;94.70;;;21.41;62.85;94606.44;4977621;28;20494;-54
2022/06/23 03:38:13;;;;;;;14.27;8.40;;;20.90;94.80;;;21.41;62.95;94593.06;4971534;28;20454;-56
2022/06/23 03:43:40;;;;;;;18.33;8.80;;;20.90;94.80;;;21.39;63.21;94600.50;4965919;28;20505;-55
2022/06/23 03:46:15;;;;;;;9.77;8.33;;;20.90;95.00;;;21.39;63.18;94593.28;4976231;28;20471;-54
2022/06/23 03:48:47;;;;;;;15.40;8.47;;;20.90;95.10;;;21.40;63.07;94596.78;4982589;28;20500;-54
2022/06/23 03:51:20;;;;;;;18.53;8.53;;;20.90;95.10;;;21.38;63.01;94602.34;4980150;28;20483;-54
2022/06/23 03:53:51;;;;;;;15.00;9.33;;;20.90;95.00;;;21.39;63.15;94614.69;4981775;28;20462;-54
2022/06/23 03:56:22;;;;;;;11.33;7.93;;;20.90;95.00;;;21.41;63.05;94615.31;4980155;28;20588;-55
2022/06/23 03:58:53;;;;;;;20.57;8.87;;;20.90;95.20;;;21.47;63.41;94605.59;4979413;28;20962;-55
2022/06/23 04:01:25;;;;;;;16.43;8.50;;;21.00;95.30;;;21.56;62.92;94603.53;4980217;28;20480;-56
2022/06/23 04:03:57;;;;;;;16.47;8.70;;;21.00;95.20;;;21.62;62.82;94608.81;4981097;28;20993;-55
2022/06/23 04:06:36;;;;;;;13.93;8.40;;;21.10;95.20;;;21.70;62.73;94614.97;4981188;28;21027;-54
2022/06/23 04:09:08;;;;;;;14.03;7.77;;;21.20;95.10;;;21.75;62.68;94615.97;4980447;28;20450;-54
2022/06/23 04:11:45;;;;;;;12.63;8.00;;;21.20;94.90;;;21.81;62.60;94615.13;4975997;28;20847;-55
2022/06/23 04:14:25;;;;;;;16.53;7.60;;;21.30;95.20;;;21.87;61.97;94620.63;4983286;28;20550;-55
2022/06/23 04:17:06;;;;;;;23.73;8.87;;;21.30;94.50;;;21.89;61.81;94621.22;4982073;28;20529;-55
2022/06/23 04:19:34;;;;;;;17.03;8.13;;;21.40;94.50;;;21.91;62.26;94621.84;4984275;28;20545;-55
2022/06/23 04:22:08;;;;;;;20.33;7.50;;;21.40;94.50;;;21.92;61.74;94623.47;4981841;28;20983;-55
2022/06/23 04:24:35;;;;;;;10.93;7.63;;;21.40;94.50;;;21.97;61.42;94629.03;4979350;28;20573;-55
2022/06/23 04:27:10;;;;;;;10.73;6.80;;;21.50;94.60;;;21.97;61.45;94621.78;4980284;28;20455;-54
2022/06/23 04:29:38;;;;;;;20.83;8.17;;;21.50;94.30;;;21.98;61.43;94611.91;4977585;28;20442;-54
2022/06/23 04:32:08;;;;;;;17.33;8.80;;;21.50;94.20;;;21.99;61.71;94605.50;4981382;28;20468;-54
2022/06/23 04:34:41;;;;;;;11.57;8.30;;;21.50;94.30;;;22.00;61.79;94609.84;4982141;28;20465;-55
2022/06/23 04:37:15;;;;;;;15.67;7.77;;;21.50;94.30;;;22.01;61.73;94612.31;4984098;28;20494;-55
2022/06/23 04:39:44;;;;;;;20.10;8.67;;;21.50;94.40;;;22.05;61.93;94612.69;4980781;28;20461;-56
2022/06/23 04:42:16;;;;;;;14.63;9.20;;;21.60;94.60;;;22.08;61.63;94609.56;4979946;28;20466;-55
2022/06/23 04:44:47;;;;;;;22.07;10.67;;;21.60;94.60;;;22.10;61.88;94604.81;4979411;28;20450;-55
2022/06/23 04:47:16;;;;;;;13.50;9.00;;;21.60;94.60;;;22.13;62.08;94609.72;4977583;28;20535;-55
2022/06/23 04:49:48;;;;;;;16.53;9.47;;;21.70;94.70;;;22.17;61.81;94616.28;4980069;28;20459;-55
2022/06/23 04:52:20;;;;;;;20.10;9.63;;;21.70;94.70;;;22.19;61.48;94611.53;4979081;28;20443;-56
2022/06/23 04:54:50;;;;;;;19.43;9.60;;;21.70;94.50;;;22.19;61.56;94616.88;4975077;28;20471;-52
2022/06/23 04:57:21;;;;;;;17.17;9.33;;;21.70;94.60;;;22.23;61.93;94609.25;4978197;28;20483;-56
2022/06/23 04:59:50;;;;;;;17.80;10.00;;;21.70;94.70;;;22.26;61.75;94603.47;4978997;28;20472;-56
2022/06/23 05:02:24;;;;;;;17.57;9.10;;;21.80;94.70;;;22.32;62.12;94596.41;4980516;28;20446;-53
2022/06/23 05:04:59;;;;;;;17.13;9.20;;;21.80;94.70;;;22.37;61.42;94591.25;4979862;28;20608;-57
2022/06/23 05:07:29;;;;;;;17.03;8.73;;;21.80;94.40;;;22.38;61.11;94593.69;4978968;28;20451;-53
2022/06/23 05:10:00;;;;;;;17.33;9.60;;;21.90;94.30;;;22.41;61.33;94602.31;4975567;28;21086;-54
2022/06/23 05:12:29;;;;;;;28.27;10.60;;;21.90;94.20;;;22.43;61.22;94592.19;4978413;28;20443;-54
2022/06/23 05:15:00;;;;;;;20.17;9.83;;;21.90;94.10;;;22.45;60.90;94601.66;4979862;28;20853;-56
2022/06/23 05:17:29;;;;;;;20.10;11.80;;;21.90;94.00;;;22.51;61.15;94624.06;4979632;28;20494;-54
2022/06/23 05:20:01;;;;;;;15.40;9.40;;;22.00;94.10;;;22.56;61.27;94633.09;4977427;28;20471;-54
2022/06/23 05:22:32;;;;;;;11.27;8.87;;;22.10;94.20;;;22.61;61.22;94616.34;4976210;28;20463;-54
2022/06/23 05:25:08;;;;;;;19.30;10.40;;;22.10;94.30;;;22.64;61.67;94599.81;4980417;28;20466;-56
2022/06/23 05:27:35;;;;;;;16.37;9.70;;;22.10;94.20;;;22.69;60.97;94580.38;4976819;28;20496;-56
2022/06/23 05:30:08;;;;;;;20.13;10.70;;;22.20;94.30;;;22.73;61.04;94579.72;4979315;28;20479;-55
2022/06/23 05:32:40;;;;;;;19.90;11.43;;;22.20;94.20;;;22.77;61.09;94612.25;4977063;28;20450;-56
2022/06/23 05:35:16;;;;;;;14.37;9.90;;;22.20;94.10;;;22.82;61.46;94630.38;4976805;28;20529;-55
2022/06/23 05:37:50;;;;;;;17.27;9.73;;;22.30;94.30;;;22.87;60.89;94628.69;4972346;28;20482;-55
2022/06/23 05:40:24;;;;;;;32.83;11.00;;;22.30;94.30;;;22.90;61.36;94596.03;4980621;28;20538;-57
2022/06/23 05:42:54;;;;;;;22.90;12.23;;;22.40;94.40;;;22.91;61.29;94611.09;4975833;28;20474;-57
2022/06/23 05:45:23;;;;;;;22.63;10.90;;;22.40;94.20;;;22.90;60.98;94654.25;4979202;28;20532;-57
2022/06/23 05:47:51;;;;;;;12.20;10.87;;;22.40;94.20;;;22.84;60.77;94747.13;4978020;28;20456;-57
2022/06/23 05:50:22;;;;;;;40.60;12.27;;;22.30;94.30;;;22.75;61.33;94954.91;4978840;28;20594;-56
2022/06/23 05:52:55;;;;;;;34.13;10.03;;;22.30;94.40;;;22.58;62.34;95000.13;4978423;28;21002;-55
2022/06/23 05:55:30;;;;;;;35.63;10.50;;;22.10;94.60;;;22.28;64.61;95008.66;4971726;28;21030;-55
2022/06/23 05:58:00;;;;;;;12.63;7.73;;;21.90;96.10;;;21.94;65.34;94841.03;4978674;28;20990;-56
2022/06/23 06:00:30;;;;;;;17.50;8.13;;;21.60;96.60;;;21.49;65.22;94756.91;4978733;28;20478;-56
2022/06/23 06:03:02;;;;;;;15.60;5.53;;;21.20;96.70;;;21.19;66.00;94761.06;4975406;28;20518;-54
2022/06/23 06:05:34;;;;;;;11.67;6.10;;;20.90;97.00;;;20.93;66.15;94787.63;4979107;28;20476;-56
2022/06/23 06:08:01;;;;;;;12.80;6.10;;;20.60;97.40;;;20.71;66.46;94812.91;4978141;28;20958;-56
2022/06/23 06:10:29;;;;;;;10.63;5.63;;;20.40;97.60;;;20.49;67.15;94826.41;4976072;28;20494;-55
2022/06/23 06:12:56;;;;;;;7.60;6.07;;;20.10;98.40;;;20.37;68.77;94836.88;4978442;28;21034;-54
2022/06/23 06:15:26;;;;;;;14.63;6.30;;;20.00;99.60;;;20.32;68.68;94825.97;4980464;28;20820;-55
2022/06/23 06:18:00;;;;;;;15.73;5.30;;;19.90;99.60;;;20.17;68.74;94815.47;4980425;28;20493;-54
2022/06/23 06:20:28;;;;;;;6.00;5.40;;;19.80;99.60;;;19.94;69.09;94814.94;4977335;28;20477;-55
2022/06/23 06:23:00;;;;;;;6.97;5.00;;;19.60;99.80;;;19.72;69.25;94807.03;4978949;28;20462;-56
2022/06/23 06:25:32;;;;;;;8.10;5.57;;;19.40;99.90;;;19.54;69.57;94788.88;4977803;28;20476;-55
2022/06/23 06:28:17;;;;;;;5.97;4.33;;;19.20;99.90;;;19.36;70.71;94757.38;4977535;28;20884;-55
2022/06/23 06:30:54;;;;;;;6.70;4.40;;;19.00;99.90;;;19.27;70.48;94756.75;4977172;28;20475;-56
2022/06/23 06:33:40;;;;;;;11.07;5.40;;;18.90;99.90;;;19.23;71.66;94762.66;4977675;28;20450;-55
2022/06/23 06:36:26;;;;;;;8.43;5.37;;;18.90;99.90;;;19.25;72.26;94764.09;4973038;28;20481;-55
2022/06/23 06:38:57;;;;;;;5.30;4.77;;;18.80;99.90;;;19.29;71.94;94749.34;4980031;28;20438;-56
2022/06/23 06:41:24;;;;;;;16.33;5.60;;;18.90;99.90;;;19.34;72.27;94746.09;4978212;28;20482;-54
2022/06/23 06:43:51;;;;;;;13.23;5.67;;;18.90;99.90;;;19.39;71.73;94737.50;4976405;28;20549;-57
2022/06/23 06:46:19;;;;;;;19.17;6.10;;;19.00;99.90;;;19.41;72.57;94740.78;4978324;28;20504;-54
2022/06/23 06:48:46;;;;;;;13.67;6.77;;;19.00;99.90;;;19.48;72.71;94750.47;4979122;28;20824;-54
2022/06/23 06:51:18;;;;;;;10.60;6.20;;;19.00;99.90;;;19.55;72.86;94741.69;4976507;28;20472;-56
2022/06/23 06:53:49;;;;;;;10.03;5.60;;;19.10;99.90;;;19.61;72.18;94741.72;4974465;28;20451;-56
2022/06/23 06:56:21;;;;;;;13.00;5.80;;;19.20;99.90;;;19.69;71.95;94746.88;4974884;28;20479;-55
2022/06/23 06:58:55;;;;;;;12.87;6.50;;;19.20;99.90;;;19.77;72.32;94747.75;4977508;28;20450;-54
2022/06/23 07:01:24;;;;;;;13.97;7.70;;;19.30;99.90;;;19.85;72.23;94739.56;4976390;28;20594;-55
2022/06/23 07:03:56;;;;;;;9.50;5.70;;;19.40;99.90;;;19.95;72.04;94753.34;4977515;28;20456;-55
2022/06/23 07:06:30;;;;;;;12.73;6.70;;;19.50;99.90;;;20.03;71.73;94753.19;4977608;28;20483;-55
2022/06/23 07:09:02;;;;;;;10.73;5.67;;;19.60;99.90;;;20.14;71.74;94761.63;4976876;28;21050;-55
2022/06/23 07:11:34;;;;;;;14.63;7.27;;;19.70;99.90;;;20.24;72.12;94756.72;4976307;28;20548;-56
2022/06/23 07:14:04;;;;;;;14.27;6.40;;;19.80;99.90;;;20.36;73.44;94755.09;4977416;28;20469;-54
2022/06/23 07:16:35;;;;;;;10.30;5.90;;;19.90;99.90;;;20.47;72.44;94756.34;4979390;28;20836;-53
2022/06/23 07:19:06;;;;;;;6.90;5.13;;;20.00;99.90;;;20.59;72.86;94770.75;4977278;28;20520;-57
2022/06/23 07:21:37;;;;;;;8.03;6.10;;;20.10;99.90;;;20.70;72.92;94787.22;4977515;28;20497;-56
2022/06/23 07:24:12;;;;;;;10.60;6.87;;;20.20;99.90;;;20.76;72.98;94779.22;4980737;28;20475;-56
2022/06/23 07:26:45;;;;;;;10.00;5.90;;;20.30;99.90;;;20.78;72.38;94790.50;4980056;28;20555;-57
2022/06/23 07:29:29;;;;;;;7.63;5.77;;;20.30;99.90;;;20.89;72.86;94790.94;4979167;28;20510;-54
2022/06/23 07:32:15;;;;;;;7.40;4.50;;;20.40;99.90;;;20.99;70.05;94780.66;4978738;28;20959;-53
2022/06/23 07:34:47;;;;;;;6.83;5.43;;;20.50;99.90;;;21.10;70.36;94789.88;4973625;28;20487;-56
2022/06/23 07:37:22;;;;;;;5.47;4.57;;;20.60;99.90;;;21.25;70.27;94787.00;4977851;28;20487;-57
2022/06/23 07:39:57;;;;;;;6.90;4.37;;;20.70;99.90;;;21.39;69.62;94782.44;4981434;28;20475;-55
2022/06/23 07:42:40;;;;;;;5.03;4.53;;;20.90;99.90;;;21.57;68.70;94785.31;4981351;28;20460;-54
2022/06/23 07:45:11;;;;;;;6.67;4.00;;;21.00;99.90;;;21.79;67.84;94790.38;4979430;28;20489;-57
2022/06/23 07:47:38;;;;;;;3.77;3.27;;;21.20;99.90;;;21.98;63.88;94796.69;4979902;28;20589;-55
2022/06/23 07:50:07;;;;;;;11.73;4.13;;;21.40;98.30;;;22.08;64.81;94810.47;4980427;28;20475;-57
2022/06/23 07:52:34;;;;;;;8.80;4.93;;;21.60;99.00;;;22.13;64.32;94815.19;4979939;28;20983;-56
2022/06/23 07:55:01;;;;;;;7.10;3.90;;;21.60;98.50;;;22.06;63.78;94814.38;4978489;28;20517;-54
2022/06/23 07:57:31;;;;;;;21.13;4.37;;;21.60;97.90;;;21.94;64.53;94801.66;4981171;28;20491;-56
2022/06/23 08:00:01;;;;;;;8.90;4.83;;;21.50;98.60;;;21.98;65.62;94804.72;4980359;28;20486;-56
2022/06/23 08:02:32;;;;;;;12.23;5.93;;;21.50;99.30;;;22.13;65.45;94805.28;4980108;28;20944;-55
2022/06/23 08:05:03;;;;;;;8.30;5.20;;;21.60;99.60;;;22.36;65.55;94812.00;4980452;28;21433;-58
2022/06/23 08:07:31;;;;;;;6.70;4.33;;;21.80;99.80;;;22.55;64.70;94811.03;4979694;28;20620;-57
2022/06/23 08:10:01;;;;;;;3.77;3.40;;;22.00;98.80;;;22.70;63.76;94791.19;4979886;28;20482;-56
2022/06/23 08:18:07;;;;;;;4.40;3.17;;;22.40;97.90;;;23.26;63.07;94797.56;4982991;28;20484;-56
2022/06/23 08:20:38;;;;;;;4.23;3.80;;;22.70;97.90;;;23.45;62.16;94799.22;4978708;28;20529;-56
2022/06/23 08:23:05;;;;;;;8.87;3.10;;;22.90;97.30;;;23.63;61.76;94784.97;4979645;28;20458;-55
2022/06/23 08:25:32;;;;;;;3.77;2.73;;;23.00;96.80;;;23.68;60.75;94788.88;4979696;28;20486;-58
2022/06/23 08:28:01;;;;;;;13.07;3.40;;;23.10;95.80;;;23.67;60.12;94785.38;4978744;28;20455;-54
2022/06/23 08:30:29;;;;;;;4.27;3.20;;;23.20;95.20;;;23.67;60.52;94788.06;4979589;28;20487;-54
2022/06/23 08:32:56;;;;;;;5.37;3.37;;;23.20;95.40;;;23.75;60.63;94784.22;4977690;28;20452;-56
2022/06/23 08:35:32;;;;;;;4.50;3.27;;;23.30;95.40;;;23.89;59.62;94772.34;4975137;28;20482;-56
2022/06/23 08:38:02;;;;;;;6.50;3.70;;;23.30;95.20;;;24.07;60.19;94773.34;4981041;28;20493;-53
2022/06/23 08:40:38;;;;;;;6.03;4.20;;;23.50;95.30;;;24.22;58.71;94778.34;4981799;28;20479;-57
2022/06/23 08:43:15;;;;;;;4.37;3.80;;;23.70;94.90;;;24.31;58.10;94769.72;4978126;28;20530;-54
2022/06/23 08:45:49;;;;;;;15.10;4.77;;;23.70;93.90;;;24.40;57.56;94761.31;4976916;28;20471;-53
2022/06/23 08:48:21;;;;;;;10.27;3.30;;;23.80;93.40;;;24.53;58.29;94766.53;4976673;28;20982;-56
2022/06/23 08:50:55;;;;;;;4.97;3.60;;;24.00;93.80;;;24.77;58.24;94766.59;4978627;28;20585;-53
2022/06/23 08:53:26;;;;;;;6.43;3.43;;;24.10;94.20;;;25.04;57.28;94770.50;4980745;28;20450;-56
2022/06/23 08:55:57;;;;;;;7.00;3.87;;;24.40;93.60;;;25.27;57.37;94760.81;4976722;28;20486;-56
2022/06/23 08:58:30;;;;;;;6.63;4.97;;;24.60;93.70;;;25.53;58.09;94754.16;4978333;28;20944;-56
2022/06/23 09:01:01;;;;;;;5.27;4.57;;;24.90;93.80;;;25.75;57.88;94757.03;4977945;28;20478;-58
2022/06/23 09:03:37;;;;;;;13.30;4.87;;;25.10;94.10;;;25.95;56.54;94755.81;4979054;28;20971;-55
2022/06/23 09:06:10;;;;;;;8.90;4.13;;;25.30;93.10;;;26.03;56.56;94755.47;4978296;28;20503;-56
2022/06/23 09:08:43;;;;;;;6.50;4.50;;;25.40;92.90;;;26.18;56.80;94754.94;4977587;28;20502;-57
2022/06/23 09:11:14;;;;;;;6.83;4.57;;;25.60;92.90;;;26.32;56.19;94755.47;4976422;28;20530;-54
2022/06/23 09:13:55;;;;;;;8.13;4.30;;;25.70;92.70;;;26.46;55.58;94748.72;4978416;28;20466;-56
2022/06/23 09:16:42;;;;;;;10.33;4.53;;;25.90;92.00;;;26.60;54.07;94745.69;4979586;28;20478;-57
2022/06/23 09:19:35;;;;;;;12.03;4.40;;;26.00;90.60;;;26.67;54.20;94745.59;4979639;28;20479;-57
2022/06/23 09:22:30;;;;;;;5.77;4.33;;;26.10;91.00;;;26.67;53.91;94746.41;4978138;28;20462;-56
2022/06/23 09:25:01;;;;;;;11.37;4.30;;;26.10;90.30;;;26.64;54.49;94744.16;4975341;28;21070;-57
2022/06/23 09:27:51;;;;;;;6.40;5.00;;;26.10;90.40;;;26.62;52.98;94744.41;4975255;28;20450;-57
2022/06/23 09:30:25;;;;;;;18.33;5.50;;;26.00;89.10;;;26.55;53.72;94737.53;4975788;28;20466;-56
2022/06/23 09:33:01;;;;;;;8.20;4.70;;;26.00;89.30;;;26.58;54.37;94731.66;4977050;28;20461;-55
2022/06/23 09:35:47;;;;;;;6.87;4.67;;;26.00;90.20;;;26.72;54.82;94727.59;4972574;28;20470;-54
2022/06/23 09:38:29;;;;;;;9.77;5.03;;;26.10;90.70;;;26.94;54.13;94724.16;4978537;28;20742;-56
2022/06/23 09:41:04;;;;;;;10.83;5.60;;;26.30;90.50;;;27.07;54.34;94718.44;4977522;28;20497;-53
2022/06/23 09:44:14;;;;;;;10.17;4.83;;;26.40;90.20;;;27.21;53.50;94712.69;4975643;28;20447;-55
2022/06/23 09:47:17;;;;;;;9.30;5.43;;;26.60;90.00;;;27.30;53.68;94712.03;4975106;28;20543;-55
2022/06/23 09:50:03;;;;;;;16.10;6.70;;;26.70;89.30;;;27.42;52.56;94720.06;4951488;28;20970;-53
2022/06/23 09:53:12;;;;;;;14.20;6.50;;;26.80;88.40;;;27.54;52.31;94728.88;4974911;28;20959;-56
2022/06/23 09:55:52;;;;;;;11.63;6.00;;;26.90;87.70;;;27.67;51.71;94726.84;4971879;28;20473;-57
2022/06/23 09:58:35;;;;;;;9.67;6.60;;;27.10;86.70;;;27.64;50.60;94724.66;4978623;28;20481;-56
2022/06/23 10:01:15;;;;;;;14.03;6.57;;;27.10;84.60;;;27.52;51.61;94722.88;4977916;28;20540;-56
2022/06/23 10:03:58;;;;;;;14.73;6.10;;;27.00;84.90;;;27.53;51.23;94724.53;4975185;28;20456;-56
2022/06/23 10:06:58;;;;;;;9.80;6.70;;;26.90;84.40;;;27.58;52.09;94717.56;4976014;28;20479;-56
2022/06/23 10:09:48;;;;;;;13.07;5.47;;;27.00;85.40;;;27.59;52.00;94720.03;4976245;28;20461;-56
2022/06/23 10:12:47;;;;;;;16.43;5.20;;;27.00;85.40;;;27.58;52.67;94722.97;4972485;28;20474;-55
2022/06/23 10:15:29;;;;;;;8.60;5.60;;;27.00;85.50;;;27.57;52.59;94727.53;4975640;28;20548;-56
2022/06/23 10:18:10;;;;;;;12.57;5.90;;;27.00;85.90;;;27.54;52.31;94712.66;4981222;28;20481;-55
2022/06/23 10:20:48;;;;;;;10.27;5.33;;;27.00;86.00;;;27.57;52.88;94714.03;4976992;28;20477;-55
2022/06/23 10:23:42;;;;;;;10.43;6.37;;;27.00;85.90;;;27.64;52.52;94706.56;4976329;28;20456;-56
2022/06/23 10:26:26;;;;;;;8.93;5.10;;;27.00;86.10;;;27.73;52.74;94693.41;4979613;28;20496;-57
2022/06/23 10:29:12;;;;;;;5.70;5.13;;;27.10;86.10;;;27.87;52.49;94705.50;4974527;28;20462;-56
2022/06/23 10:32:06;;;;;;;9.20;5.03;;;27.20;85.70;;;28.00;51.53;94700.81;4970947;28;20490;-56
2022/06/23 10:34:50;;;;;;;14.03;5.40;;;27.40;85.20;;;28.10;50.66;94695.47;4975854;28;20490;-55
2022/06/23 10:37:47;;;;;;;7.17;6.37;;;27.50;83.70;;;28.13;51.04;94686.84;4976489;28;20453;-56
2022/06/23 10:40:30;;;;;;;14.43;6.37;;;27.50;82.60;;;28.11;51.05;94678.19;4976653;28;20594;-55
2022/06/23 10:43:32;;;;;;;13.63;6.47;;;27.50;82.90;;;28.07;51.61;94683.31;4978127;28;20446;-56
2022/06/23 10:46:02;;;;;;;7.20;5.70;;;27.50;83.20;;;28.12;51.96;94679.84;4974704;28;20481;-56
2022/06/23 10:49:06;;;;;;;11.80;5.70;;;27.50;83.80;;;28.20;51.98;94676.66;4975822;28;20910;-57
2022/06/23 10:52:27;;;;;;;9.90;6.33;;;27.60;83.70;;;28.24;50.02;94679.66;4974490;28;20475;-57
2022/06/23 10:55:18;;;;;;;6.97;6.30;;;27.60;82.00;;;28.23;50.87;94670.75;4939726;28;20480;-56